createdAt,value
2019-04-27T00:01:33.989Z,13.73
2019-04-27T00:04:25.299Z,15.27
2019-04-27T00:06:57.927Z,20.07
2019-04-27T00:09:36.167Z,14.07
2019-04-27T00:12:07.296Z,13.57
2019-04-27T00:14:36.372Z,15.83
2019-04-27T00:17:45.005Z,15.83
2019-04-27T00:20:15.220Z,19.37
2019-04-27T00:22:48.720Z,18.97
2019-04-27T00:25:17.580Z,18.00
2019-04-27T00:27:46.361Z,14.80
2019-04-27T00:30:15.498Z,14.30
2019-04-27T00:32:44.416Z,15.53
2019-04-27T00:35:16.261Z,17.80
2019-04-27T00:38:00.171Z,14.80
2019-04-27T00:40:37.972Z,17.07
2019-04-27T00:43:06.718Z,14.90
2019-04-27T00:45:35.663Z,20.40
2019-04-27T00:48:10.779Z,17.63
2019-04-27T00:50:40.689Z,14.90
2019-04-27T00:53:09.590Z,15.07
2019-04-27T00:55:46.578Z,16.33
2019-04-27T00:58:29.291Z,16.23
2019-04-27T01:01:08.271Z,14.17
2019-04-27T01:03:56.154Z,26.33
2019-04-27T01:06:25.173Z,12.90
2019-04-27T01:08:53.890Z,12.60
2019-04-27T01:11:24.876Z,14.83
2019-04-27T01:13:59.622Z,12.43
2019-04-27T01:16:29.355Z,11.87
2019-04-27T01:18:58.950Z,8.97
2019-04-27T01:21:29.434Z,10.00
2019-04-27T01:24:01.590Z,10.27
2019-04-27T01:26:50.026Z,9.83
2019-04-27T01:29:24.301Z,8.97
2019-04-27T01:31:53.060Z,10.07
2019-04-27T01:34:25.026Z,12.67
2019-04-27T01:36:56.860Z,8.33
2019-04-27T01:39:25.844Z,9.00
2019-04-27T01:41:54.586Z,9.30
2019-04-27T01:44:23.462Z,8.67
2019-04-27T01:46:59.964Z,10.77
2019-04-27T01:49:29.481Z,10.03
2019-04-27T01:52:01.571Z,8.17
2019-04-27T01:54:33.670Z,9.17
2019-04-27T01:57:04.212Z,8.47
2019-04-27T01:59:35.275Z,8.20
2019-04-27T02:02:26.345Z,8.03
2019-04-27T02:05:14.243Z,8.00
2019-04-27T02:07:44.213Z,7.30
2019-04-27T02:10:13.852Z,8.03
2019-04-27T02:12:46.274Z,7.73
2019-04-27T02:15:19.235Z,8.77
2019-04-27T02:17:51.564Z,7.20
2019-04-27T02:20:35.885Z,11.63
2019-04-27T02:23:09.298Z,6.73
2019-04-27T02:25:39.657Z,7.30
2019-04-27T02:28:19.461Z,7.70
2019-04-27T02:31:10.999Z,8.87
2019-04-27T02:33:46.616Z,13.87
2019-04-27T02:36:15.451Z,8.00
2019-04-27T02:38:51.575Z,11.00
2019-04-27T02:41:20.318Z,7.90
2019-04-27T02:43:56.775Z,8.30
2019-04-27T02:46:31.738Z,7.77
2019-04-27T02:49:06.201Z,8.50
2019-04-27T02:51:46.658Z,8.10
2019-04-27T02:54:15.554Z,8.83
2019-04-27T02:56:46.567Z,7.40
2019-04-27T02:59:15.522Z,8.77
2019-04-27T03:01:53.536Z,7.10
2019-04-27T03:04:33.919Z,7.50
2019-04-27T03:07:06.827Z,7.50
2019-04-27T03:09:35.579Z,7.87
2019-04-27T03:12:04.860Z,6.77
2019-04-27T03:14:52.676Z,7.23
2019-04-27T03:17:43.553Z,8.23
2019-04-27T03:20:32.728Z,8.60
2019-04-27T03:23:05.074Z,7.50
2019-04-27T03:25:52.925Z,8.37
2019-04-27T03:28:21.743Z,8.90
2019-04-27T03:30:52.038Z,9.87
2019-04-27T03:33:22.515Z,9.57
2019-04-27T03:35:55.136Z,11.33
2019-04-27T03:38:24.167Z,8.83
2019-04-27T03:40:53.322Z,9.77
2019-04-27T03:43:24.512Z,8.57
2019-04-27T03:45:54.028Z,9.37
2019-04-27T03:48:22.733Z,9.27
2019-04-27T03:51:10.617Z,8.37
2019-04-27T03:53:57.144Z,7.80
2019-04-27T03:56:31.166Z,8.67
2019-04-27T03:59:10.361Z,9.47
2019-04-27T04:01:43.354Z,9.10
2019-04-27T04:04:12.163Z,9.00
2019-04-27T04:06:41.021Z,11.23
2019-04-27T04:09:10.676Z,11.77
2019-04-27T04:11:49.157Z,11.10
2019-04-27T04:14:20.344Z,9.83
2019-04-27T04:16:53.115Z,11.17
2019-04-27T04:19:22.200Z,10.13
2019-04-27T04:21:51.092Z,10.03
2019-04-27T04:24:20.201Z,10.13
2019-04-27T04:26:50.550Z,11.70
2019-04-27T04:29:20.258Z,10.40
2019-04-27T04:31:50.295Z,11.17
2019-04-27T04:34:24.743Z,10.40
2019-04-27T04:37:00.593Z,10.23
2019-04-27T04:39:29.786Z,11.37
2019-04-27T04:42:05.677Z,11.23
2019-04-27T04:44:50.221Z,12.53
2019-04-27T04:47:26.745Z,10.93
2019-04-27T04:50:10.307Z,11.43
2019-04-27T04:52:26.077Z,12.43
2019-04-27T04:54:56.671Z,11.60
2019-04-27T04:57:29.944Z,11.50
2019-04-27T04:59:59.360Z,13.30
2019-04-27T05:02:29.333Z,13.60
2019-04-27T05:05:05.277Z,13.73
2019-04-27T05:07:34.053Z,15.13
2019-04-27T05:10:02.835Z,15.33
2019-04-27T05:12:31.581Z,15.27
2019-04-27T05:15:03.374Z,17.17
2019-04-27T05:17:32.082Z,16.03
2019-04-27T05:20:26.191Z,14.93
2019-04-27T05:22:52.707Z,14.23
2019-04-27T05:25:24.957Z,15.73
2019-04-27T05:27:53.666Z,17.73
2019-04-27T05:30:22.434Z,16.23
2019-04-27T05:32:51.039Z,14.20
2019-04-27T05:35:19.771Z,16.73
2019-04-27T05:37:49.215Z,15.00
2019-04-27T05:40:21.385Z,15.10
2019-04-27T05:42:55.215Z,14.67
2019-04-27T05:45:48.808Z,14.50
2019-04-27T05:48:27.447Z,14.27
2019-04-27T05:50:58.283Z,15.13
2019-04-27T05:53:21.475Z,15.50
2019-04-27T05:55:50.237Z,16.53
2019-04-27T05:58:19.553Z,16.43
2019-04-27T06:00:49.585Z,17.40
2019-04-27T06:03:18.655Z,15.60
2019-04-27T06:05:48.989Z,18.42
2019-04-27T06:08:18.787Z,16.23
2019-04-27T06:10:48.928Z,14.90
2019-04-27T06:13:18.981Z,14.97
2019-04-27T06:15:47.865Z,15.70
2019-04-27T06:18:16.565Z,14.13
2019-04-27T06:20:53.292Z,14.13
2019-04-27T06:23:16.108Z,13.47
2019-04-27T06:25:44.838Z,14.30
2019-04-27T06:28:13.493Z,15.07
2019-04-27T06:30:42.225Z,14.43
2019-04-27T06:33:11.049Z,16.33
2019-04-27T06:35:40.024Z,15.17
2019-04-27T06:38:10.179Z,17.57
2019-04-27T06:40:39.440Z,13.87
2019-04-27T06:43:08.716Z,13.83
2019-04-27T06:45:38.800Z,12.93
2019-04-27T06:48:09.498Z,15.13
2019-04-27T06:50:38.938Z,13.37
2019-04-27T06:53:09.102Z,12.57
2019-04-27T06:55:39.220Z,13.73
2019-04-27T06:58:08.950Z,14.37
2019-04-27T07:00:39.506Z,12.63
2019-04-27T07:03:08.981Z,11.47
2019-04-27T07:05:38.912Z,11.63
2019-04-27T07:08:08.977Z,11.37
2019-04-27T07:10:39.163Z,11.33
2019-04-27T07:13:09.638Z,11.40
2019-04-27T07:15:38.777Z,10.87
2019-04-27T07:18:07.546Z,8.93
2019-04-27T07:20:36.361Z,9.27
2019-04-27T07:23:05.105Z,8.80
2019-04-27T07:25:33.887Z,9.50
2019-04-27T07:28:02.601Z,9.23
2019-04-27T07:30:31.407Z,8.07
2019-04-27T07:33:00.463Z,8.77
2019-04-27T07:35:29.632Z,10.73
2019-04-27T07:37:58.888Z,10.70
2019-04-27T07:40:28.928Z,8.40
2019-04-27T07:43:09.097Z,12.07
2019-04-27T07:45:39.593Z,16.10
2019-04-27T07:48:09.133Z,13.00
2019-04-27T07:50:39.059Z,12.83
2019-04-27T07:53:08.663Z,13.23
2019-04-27T07:55:39.275Z,10.10
2019-04-27T07:58:08.930Z,9.87
2019-04-27T08:00:39.439Z,9.93
2019-04-27T08:03:09.795Z,10.77
2019-04-27T08:05:39.183Z,9.33
2019-04-27T08:08:08.961Z,8.70
2019-04-27T08:10:39.222Z,9.17
2019-04-27T08:13:09.492Z,9.93
2019-04-27T08:15:39.608Z,10.10
2019-04-27T08:18:09.030Z,8.67
2019-04-27T08:20:39.070Z,7.20
2019-04-27T08:23:09.495Z,7.77
2019-04-27T08:25:39.226Z,7.33
2019-04-27T08:28:28.697Z,7.30
2019-04-27T08:31:11.718Z,6.60
2019-04-27T08:33:40.369Z,5.47
2019-04-27T08:36:09.225Z,4.83
2019-04-27T08:38:38.975Z,5.67
2019-04-27T08:41:08.989Z,6.13
2019-04-27T08:43:38.994Z,4.37
2019-04-27T08:46:08.795Z,3.50
2019-04-27T08:48:39.311Z,3.77
2019-04-27T08:51:09.583Z,3.90
2019-04-27T08:53:39.781Z,3.60
2019-04-27T08:56:09.394Z,3.33
2019-04-27T08:58:38.605Z,3.57
2019-04-27T09:01:09.978Z,3.87
2019-04-27T09:03:39.460Z,4.47
2019-04-27T09:06:09.745Z,4.33
2019-04-27T09:08:50.664Z,5.70
2019-04-27T09:11:35.463Z,4.00
2019-04-27T09:14:11.534Z,4.37
2019-04-27T09:17:02.817Z,4.60
2019-04-27T09:19:42.444Z,4.50
2019-04-27T09:22:16.009Z,7.23
2019-04-27T09:24:41.696Z,5.33
2019-04-27T09:27:10.510Z,5.40
2019-04-27T09:29:39.660Z,5.67
2019-04-27T09:32:08.875Z,6.77
2019-04-27T09:34:37.727Z,6.87
2019-04-27T09:37:06.564Z,7.43
2019-04-27T09:39:36.291Z,7.33
2019-04-27T09:42:06.487Z,7.93
2019-04-27T09:44:37.158Z,7.90
2019-04-27T09:47:06.215Z,8.33
2019-04-27T09:49:36.698Z,11.07
2019-04-27T09:52:06.318Z,10.50
2019-04-27T09:54:36.513Z,11.00
2019-04-27T09:57:06.940Z,13.93
2019-04-27T09:59:39.425Z,12.03
2019-04-27T10:02:08.449Z,14.70
2019-04-27T10:04:48.295Z,13.73
2019-04-27T10:07:38.776Z,13.43
2019-04-27T10:10:20.303Z,13.33
2019-04-27T10:12:52.955Z,14.27
2019-04-27T10:16:39.522Z,13.90
2019-04-27T10:17:58.677Z,15.57
2019-04-27T10:20:41.163Z,17.30
2019-04-27T10:23:10.292Z,15.50
2019-04-27T10:25:39.184Z,14.87
2019-04-27T10:28:07.981Z,15.67
2019-04-27T10:30:36.768Z,16.83
2019-04-27T10:33:05.980Z,15.60
2019-04-27T10:35:36.438Z,16.77
2019-04-27T10:38:05.480Z,17.43
2019-04-27T10:40:34.239Z,14.73
2019-04-27T10:43:03.063Z,15.37
2019-04-27T10:45:31.795Z,15.47
2019-04-27T10:48:00.434Z,15.83
2019-04-27T10:50:29.166Z,15.63
2019-04-27T10:52:59.321Z,17.03
2019-04-27T10:55:28.266Z,15.73
2019-04-27T10:57:56.993Z,15.20
2019-04-27T11:00:32.547Z,18.87
2019-04-27T11:03:01.270Z,14.20
2019-04-27T11:05:36.280Z,17.40
2019-04-27T11:08:06.597Z,14.63
2019-04-27T11:10:36.093Z,14.80
2019-04-27T11:13:06.269Z,15.03
2019-04-27T11:15:37.022Z,14.87
2019-04-27T11:18:06.359Z,14.90
2019-04-27T11:20:36.302Z,15.13
2019-04-27T11:23:09.236Z,14.90
2019-04-27T11:25:36.515Z,15.23
2019-04-27T11:28:05.806Z,14.27
2019-04-27T11:30:34.625Z,14.37
2019-04-27T11:33:03.365Z,13.30
2019-04-27T11:35:43.855Z,14.47
2019-04-27T11:38:12.744Z,15.63
2019-04-27T11:40:41.495Z,13.70
2019-04-27T11:43:10.315Z,16.30
2019-04-27T11:45:39.046Z,15.23
2019-04-27T11:48:07.767Z,17.13
2019-04-27T11:50:36.554Z,13.90
2019-04-27T11:53:06.226Z,12.20
2019-04-27T11:55:35.080Z,11.13
2019-04-27T11:58:03.904Z,10.63
2019-04-27T12:00:32.877Z,12.23
2019-04-27T12:03:01.465Z,9.90
2019-04-27T12:05:30.236Z,9.63
2019-04-27T12:07:58.854Z,9.80
2019-04-27T12:10:27.587Z,9.30
2019-04-27T12:12:56.480Z,10.53
2019-04-27T12:15:26.228Z,9.30
2019-04-27T12:17:56.102Z,9.20
2019-04-27T12:20:25.852Z,8.30
2019-04-27T12:22:54.797Z,10.43
2019-04-27T12:25:23.591Z,8.00
2019-04-27T12:28:11.419Z,9.17
2019-04-27T12:30:45.975Z,7.93
2019-04-27T12:33:14.664Z,8.40
2019-04-27T12:35:43.404Z,8.50
2019-04-27T12:38:12.191Z,8.97
2019-04-27T12:40:41.045Z,12.30
2019-04-27T12:43:09.797Z,9.07
2019-04-27T12:45:40.399Z,8.13
2019-04-27T12:48:08.970Z,8.60
2019-04-27T12:50:37.946Z,10.33
2019-04-27T12:53:09.438Z,7.23
2019-04-27T12:55:57.280Z,8.00
2019-04-27T12:58:45.034Z,9.67
2019-04-27T13:01:15.762Z,8.30
2019-04-27T13:03:46.205Z,7.47
2019-04-27T13:09:10.436Z,8.70
2019-04-27T13:11:39.300Z,7.97
2019-04-27T13:14:07.996Z,9.37
2019-04-27T13:16:36.825Z,9.93
2019-04-27T13:19:06.177Z,8.50
2019-04-27T13:21:36.575Z,8.33
2019-04-27T13:24:07.026Z,9.77
2019-04-27T13:26:36.221Z,11.30
2019-04-27T13:29:06.759Z,9.63
2019-04-27T13:31:36.920Z,9.60
2019-04-27T13:34:05.866Z,10.00
2019-04-27T13:36:36.625Z,8.80
2019-04-27T13:39:06.393Z,10.37
2019-04-27T13:41:35.912Z,9.27
2019-04-27T13:44:06.443Z,9.10
2019-04-27T13:46:55.955Z,10.67
2019-04-27T13:49:46.854Z,9.53
2019-04-27T13:52:19.476Z,9.53
2019-04-27T13:54:48.375Z,11.67
2019-04-27T13:57:18.395Z,9.87
2019-04-27T13:59:47.249Z,9.63
2019-04-27T14:02:16.202Z,9.50
2019-04-27T14:04:45.093Z,9.30
2019-04-27T14:07:13.874Z,8.87
2019-04-27T14:09:42.588Z,9.17
2019-04-27T14:12:18.797Z,8.90
2019-04-27T14:14:48.972Z,7.83
2019-04-27T14:17:19.314Z,8.17
2019-04-27T14:19:48.342Z,8.37
2019-04-27T14:22:18.243Z,8.80
2019-04-27T14:24:48.736Z,8.03
2019-04-27T14:27:20.189Z,9.17
2019-04-27T14:29:49.087Z,8.93
2019-04-27T14:32:18.734Z,9.47
2019-04-27T14:34:50.063Z,8.90
2019-04-27T14:37:18.631Z,10.53
2019-04-27T14:39:47.831Z,9.57
2019-04-27T14:42:16.828Z,9.97
2019-04-27T14:44:48.988Z,8.70
2019-04-27T14:47:21.383Z,10.17
2019-04-27T14:49:50.117Z,9.23
2019-04-27T14:52:20.174Z,8.80
2019-04-27T14:54:50.890Z,8.03
2019-04-27T14:57:20.475Z,8.60
2019-04-27T14:59:49.488Z,8.47
2019-04-27T15:02:18.597Z,8.63
2019-04-27T15:04:47.379Z,9.30
2019-04-27T15:07:19.463Z,9.40
2019-04-27T15:09:49.691Z,8.47
2019-04-27T15:12:18.630Z,10.00
2019-04-27T15:14:47.532Z,8.73
2019-04-27T15:17:17.434Z,8.53
2019-04-27T15:19:53.920Z,8.47
2019-04-27T15:22:26.810Z,8.73
2019-04-27T15:25:09.210Z,9.17
2019-04-27T15:27:37.411Z,9.27
2019-04-27T15:30:06.078Z,10.53
2019-04-27T15:32:51.530Z,7.33
2019-04-27T15:35:31.335Z,7.20
2019-04-27T15:38:08.532Z,7.97
2019-04-27T15:40:54.678Z,9.53
2019-04-27T15:43:30.821Z,8.20
2019-04-27T15:45:58.742Z,7.70
2019-04-27T15:48:30.655Z,8.13
2019-04-27T15:51:02.863Z,8.93
2019-04-27T15:53:28.507Z,8.33
2019-04-27T15:55:58.329Z,8.03
2019-04-27T15:58:28.385Z,9.13
2019-04-27T16:01:02.343Z,8.03
2019-04-27T16:03:31.260Z,9.20
2019-04-27T16:05:58.846Z,8.53
2019-04-27T16:08:28.824Z,8.97
2019-04-27T16:10:58.830Z,8.77
2019-04-27T16:13:32.681Z,8.07
2019-04-27T16:15:58.477Z,9.23
2019-04-27T16:18:31.121Z,7.83
2019-04-27T16:21:02.847Z,9.30
2019-04-27T16:23:33.648Z,7.47
2019-04-27T16:26:05.118Z,7.33
2019-04-27T16:28:33.821Z,7.30
2019-04-27T16:31:02.651Z,7.00
2019-04-27T16:33:31.389Z,7.07
2019-04-27T16:36:06.387Z,7.07
2019-04-27T16:38:44.506Z,6.53
2019-04-27T16:41:13.329Z,7.10
2019-04-27T16:43:42.382Z,7.63
2019-04-27T16:46:12.192Z,5.43
2019-04-27T16:48:40.986Z,7.33
2019-04-27T16:51:10.902Z,8.03
2019-04-27T16:53:41.153Z,8.40
2019-04-27T16:56:15.199Z,6.23
2019-04-27T16:58:40.649Z,5.93
2019-04-27T17:01:18.856Z,6.67
2019-04-27T17:03:48.525Z,5.63
2019-04-27T17:06:21.023Z,6.03
2019-04-27T17:08:49.660Z,6.13
2019-04-27T17:11:19.577Z,6.50
2019-04-27T17:13:53.286Z,7.50
2019-04-27T17:16:41.045Z,6.47
2019-04-27T17:19:14.886Z,8.53
2019-04-27T17:21:43.659Z,8.17
2019-04-27T17:24:14.044Z,7.67
2019-04-27T17:26:43.749Z,9.30
2019-04-27T17:29:16.641Z,12.33
2019-04-27T17:31:50.578Z,13.30
2019-04-27T17:34:19.026Z,15.63
2019-04-27T17:36:54.472Z,14.17
2019-04-27T17:39:23.282Z,17.83
2019-04-27T17:41:52.732Z,12.93
2019-04-27T17:44:23.118Z,16.33
2019-04-27T17:46:51.256Z,13.30
2019-04-27T17:49:20.173Z,12.13
2019-04-27T17:51:48.918Z,12.77
2019-04-27T17:54:18.184Z,10.20
2019-04-27T17:56:50.950Z,11.27
2019-04-27T17:59:20.775Z,8.57
2019-04-27T18:01:49.607Z,7.97
2019-04-27T18:04:18.674Z,9.23
2019-04-27T18:06:48.369Z,9.37
2019-04-27T18:09:18.904Z,8.53
2019-04-27T18:11:50.189Z,8.37
2019-04-27T18:14:19.263Z,7.07
2019-04-27T18:16:48.396Z,7.30
2019-04-27T18:19:25.653Z,6.80
2019-04-27T18:22:01.001Z,6.33
2019-04-27T18:24:37.870Z,8.90
2019-04-27T18:27:18.324Z,7.93
2019-04-27T18:29:48.596Z,5.83
2019-04-27T18:32:17.580Z,8.07
2019-04-27T18:34:49.325Z,7.33
2019-04-27T18:37:20.877Z,7.90
2019-04-27T18:39:50.904Z,7.10
2019-04-27T18:42:18.178Z,9.27
2019-04-27T18:44:48.602Z,8.17
2019-04-27T18:47:17.475Z,10.87
2019-04-27T18:50:10.947Z,12.83
2019-04-27T18:52:49.505Z,10.40
2019-04-27T18:55:18.524Z,18.40
2019-04-27T18:57:50.911Z,12.13
2019-04-27T19:00:23.803Z,15.50
2019-04-27T19:02:53.528Z,12.17
2019-04-27T19:05:22.426Z,12.23
2019-04-27T19:07:55.088Z,13.70
2019-04-27T19:10:28.183Z,13.97
2019-04-27T19:12:58.481Z,13.53
2019-04-27T19:15:28.590Z,14.27
2019-04-27T19:17:58.167Z,13.30
2019-04-27T19:20:28.818Z,11.77
2019-04-27T19:22:59.754Z,16.97
2019-04-27T19:25:48.229Z,17.63
2019-04-27T19:28:34.803Z,15.40
2019-04-27T19:31:08.273Z,12.70
2019-04-27T19:33:37.265Z,14.47
2019-04-27T19:36:06.040Z,13.93
2019-04-27T19:38:34.927Z,14.47
2019-04-27T19:41:03.753Z,18.07
2019-04-27T19:43:32.534Z,17.57
2019-04-27T19:46:01.264Z,13.37
2019-04-27T19:48:29.996Z,15.03
2019-04-27T19:51:00.183Z,17.33
2019-04-27T19:53:29.048Z,18.47
2019-04-27T19:56:03.935Z,21.10
2019-04-27T19:58:38.073Z,23.80
2019-04-27T20:01:14.247Z,20.67
2019-04-27T20:03:46.405Z,20.63
2019-04-27T20:06:15.158Z,22.93
2019-04-27T20:08:46.719Z,22.50
2019-04-27T20:11:17.554Z,24.63
2019-04-27T20:13:48.626Z,24.50
2019-04-27T20:16:17.502Z,27.00
2019-04-27T20:18:46.381Z,27.33
2019-04-27T20:21:15.454Z,28.33
2019-04-27T20:23:44.260Z,28.33
2019-04-27T20:26:12.905Z,28.53
2019-04-27T20:28:41.623Z,26.67
2019-04-27T20:31:10.320Z,29.30
2019-04-27T20:33:39.012Z,25.40
2019-04-27T20:36:07.763Z,26.40
2019-04-27T20:38:36.498Z,26.30
2019-04-27T20:41:05.175Z,24.13
2019-04-27T20:43:33.876Z,23.27
2019-04-27T20:46:02.655Z,23.20
2019-04-27T20:48:31.371Z,22.33
2019-04-27T20:51:01.266Z,24.47
2019-04-27T20:53:35.273Z,23.23
2019-04-27T20:56:03.956Z,27.67
2019-04-27T20:58:32.616Z,23.57
2019-04-27T21:01:01.757Z,22.00
2019-04-27T21:03:34.741Z,22.97
2019-04-27T21:06:22.661Z,20.83
2019-04-27T21:08:51.796Z,23.33
2019-04-27T21:11:20.971Z,23.53
2019-04-27T21:13:51.943Z,24.43
2019-04-27T21:16:21.128Z,25.77
2019-04-27T21:18:51.335Z,20.50
2019-04-27T21:21:20.751Z,25.20
2019-04-27T21:23:51.443Z,22.53
2019-04-27T21:26:28.507Z,22.60
2019-04-27T21:28:57.485Z,26.13
2019-04-27T21:31:26.311Z,25.13
2019-04-27T21:33:55.033Z,23.97
2019-04-27T21:36:23.955Z,23.23
2019-04-27T21:38:52.717Z,24.50
2019-04-27T21:41:23.500Z,26.57
2019-04-27T21:43:52.456Z,25.90
2019-04-27T21:46:22.789Z,24.73
2019-04-27T21:48:56.003Z,24.33
2019-04-27T21:51:24.989Z,24.17
2019-04-27T21:54:02.908Z,24.23
2019-04-27T21:56:31.831Z,23.90
2019-04-27T21:59:01.074Z,22.50
2019-04-27T22:01:32.059Z,23.93
2019-04-27T22:04:03.998Z,23.67
2019-04-27T22:06:32.920Z,26.07
2019-04-27T22:09:01.810Z,25.13
2019-04-27T22:11:31.902Z,24.27
2019-04-27T22:14:01.394Z,22.53
2019-04-27T22:16:31.452Z,28.30
2019-04-27T22:19:01.966Z,24.77
2019-04-27T22:21:31.701Z,28.67
2019-04-27T22:24:11.162Z,22.43
2019-04-27T22:26:41.490Z,23.37
2019-04-27T22:29:12.034Z,26.07
2019-04-27T22:31:41.601Z,22.40
2019-04-27T22:34:10.888Z,21.77
2019-04-27T22:36:39.875Z,23.93
2019-04-27T22:39:23.116Z,22.97
2019-04-27T22:42:12.125Z,20.47
2019-04-27T22:44:47.333Z,20.47
2019-04-27T22:47:16.230Z,21.27
2019-04-27T22:49:45.128Z,22.20
2019-04-27T22:52:14.040Z,25.03
2019-04-27T22:54:42.877Z,22.73
2019-04-27T22:57:18.317Z,23.07
2019-04-27T23:00:06.212Z,24.07
2019-04-27T23:02:43.012Z,21.83
2019-04-27T23:05:11.912Z,20.63
2019-04-27T23:07:41.428Z,20.60
2019-04-27T23:10:11.283Z,23.47
2019-04-27T23:12:44.571Z,24.27
2019-04-27T23:15:17.522Z,22.93
2019-04-27T23:17:55.322Z,26.10
2019-04-27T23:20:24.374Z,23.70
2019-04-27T23:22:53.338Z,23.97
2019-04-27T23:25:22.417Z,23.67
2019-04-27T23:27:51.491Z,25.37
2019-04-27T23:30:22.002Z,26.97
2019-04-27T23:32:53.975Z,27.17
2019-04-27T23:35:22.972Z,23.40
2019-04-27T23:37:52.875Z,21.90
2019-04-27T23:40:22.048Z,23.33
2019-04-27T23:42:51.622Z,25.97
2019-04-27T23:45:23.661Z,25.33
2019-04-27T23:47:52.602Z,24.43
2019-04-27T23:50:21.989Z,25.00
2019-04-27T23:53:11.749Z,25.23
2019-04-27T23:55:42.061Z,21.60
2019-04-27T23:58:11.078Z,21.93
